createdAt,value
2017-11-12T00:00:33.316Z,992.4
2017-11-12T00:01:34.143Z,992.4
2017-11-12T00:02:34.871Z,992.4
2017-11-12T00:03:35.606Z,992.4
2017-11-12T00:04:36.384Z,992.4
2017-11-12T00:05:37.182Z,992.4
2017-11-12T00:06:37.914Z,992.3
2017-11-12T00:07:38.669Z,992.3
2017-11-12T00:08:39.399Z,992.3
2017-11-12T00:09:40.186Z,992.4
2017-11-12T00:10:40.930Z,992.4
2017-11-12T00:11:41.686Z,992.4
2017-11-12T00:12:42.406Z,992.4
2017-11-12T00:13:43.223Z,992.3
2017-11-12T00:14:43.949Z,992.4
2017-11-12T00:15:44.674Z,992.3
2017-11-12T00:16:45.706Z,992.3
2017-11-12T00:17:46.397Z,992.4
2017-11-12T00:18:47.205Z,992.3
2017-11-12T00:19:47.925Z,992.4
2017-11-12T00:20:48.640Z,992.4
2017-11-12T00:21:49.364Z,992.4
2017-11-12T00:22:50.092Z,992.3
2017-11-12T00:23:50.810Z,992.4
2017-11-12T00:24:51.561Z,992.4
2017-11-12T00:25:52.323Z,992.3
2017-11-12T00:26:53.116Z,992.3
2017-11-12T00:27:53.836Z,992.3
2017-11-12T00:28:54.630Z,992.3
2017-11-12T00:29:55.351Z,992.3
2017-11-12T00:30:56.250Z,992.3
2017-11-12T00:31:56.976Z,992.3
2017-11-12T00:32:57.733Z,992.3
2017-11-12T00:33:58.451Z,992.3
2017-11-12T00:34:59.170Z,992.3
2017-11-12T00:35:59.953Z,992.2
2017-11-12T00:37:00.751Z,992.3
2017-11-12T00:38:01.481Z,992.3
2017-11-12T00:39:02.201Z,992.3
2017-11-12T00:40:02.986Z,992.3
2017-11-12T00:41:03.720Z,992.3
2017-11-12T00:42:04.441Z,992.3
2017-11-12T00:43:05.160Z,992.3
2017-11-12T00:44:05.938Z,992.3
2017-11-12T00:45:06.731Z,992.3
2017-11-12T00:46:07.466Z,992.3
2017-11-12T00:47:08.321Z,992.3
2017-11-12T00:48:09.058Z,992.3
2017-11-12T00:49:09.750Z,992.3
2017-11-12T00:50:10.557Z,992.3
2017-11-12T00:51:11.337Z,992.3
2017-11-12T00:52:12.157Z,992.3
2017-11-12T00:53:12.924Z,992.3
2017-11-12T00:54:13.647Z,992.3
2017-11-12T00:55:14.374Z,992.3
2017-11-12T00:56:15.101Z,992.3
2017-11-12T00:57:15.834Z,992.3
2017-11-12T00:58:16.491Z,992.3
2017-11-12T00:59:17.191Z,992.3
2017-11-12T01:00:17.903Z,992.3
2017-11-12T01:01:18.632Z,992.3
2017-11-12T01:02:19.450Z,992.4
2017-11-12T01:03:20.172Z,992.3
2017-11-12T01:04:20.965Z,992.3
2017-11-12T01:05:21.720Z,992.2
2017-11-12T01:06:22.441Z,992.3
2017-11-12T01:07:23.553Z,992.2
2017-11-12T01:08:24.269Z,992.2
2017-11-12T01:09:24.999Z,992.3
2017-11-12T01:10:26.105Z,992.3
2017-11-12T01:11:26.769Z,992.3
2017-11-12T01:12:27.619Z,992.3
2017-11-12T01:13:28.342Z,992.3
2017-11-12T01:14:29.164Z,992.2
2017-11-12T01:15:29.911Z,992.3
2017-11-12T01:16:30.643Z,992.2
2017-11-12T01:17:31.836Z,992.2
2017-11-12T01:18:32.501Z,992.2
2017-11-12T01:19:33.231Z,992.2
2017-11-12T01:20:34.028Z,992.2
2017-11-12T01:21:34.754Z,992.1
2017-11-12T01:22:35.616Z,992.1
2017-11-12T01:23:36.353Z,992.2
2017-11-12T01:24:37.140Z,992.1
2017-11-12T01:25:37.852Z,992.1
2017-11-12T01:26:38.830Z,992.1
2017-11-12T01:27:39.580Z,992.1
2017-11-12T01:28:40.306Z,992.0
2017-11-12T01:29:41.029Z,992.1
2017-11-12T01:30:41.754Z,992.0
2017-11-12T01:31:42.505Z,992.0
2017-11-12T01:32:43.278Z,992.0
2017-11-12T01:33:44.003Z,992.0
2017-11-12T01:34:44.799Z,992.0
2017-11-12T01:35:45.531Z,992.0
2017-11-12T01:36:46.328Z,992.0
2017-11-12T01:37:47.039Z,992.0
2017-11-12T01:38:47.761Z,992.0
2017-11-12T01:39:48.483Z,992.0
2017-11-12T01:40:49.265Z,991.9
2017-11-12T01:41:50.060Z,992.0
2017-11-12T01:42:50.850Z,991.9
2017-11-12T01:43:51.570Z,991.9
2017-11-12T01:44:52.359Z,991.9
2017-11-12T01:45:53.090Z,991.9
2017-11-12T01:46:53.810Z,991.9
2017-11-12T01:47:54.623Z,991.9
2017-11-12T01:48:55.438Z,991.9
2017-11-12T01:49:56.121Z,991.9
2017-11-12T01:50:56.843Z,991.9
2017-11-12T01:51:57.653Z,991.9
2017-11-12T01:52:59.161Z,991.9
2017-11-12T01:53:59.920Z,991.9
2017-11-12T01:55:00.640Z,991.9
2017-11-12T01:56:01.360Z,991.9
2017-11-12T01:57:02.089Z,992.0
2017-11-12T01:58:03.170Z,991.9
2017-11-12T01:59:03.887Z,991.9
2017-11-12T02:00:04.721Z,992.0
2017-11-12T02:01:05.434Z,991.9
2017-11-12T02:02:06.245Z,991.9
2017-11-12T02:03:07.097Z,991.9
2017-11-12T02:04:07.853Z,991.9
2017-11-12T02:05:08.670Z,991.9
2017-11-12T02:06:09.394Z,991.9
2017-11-12T02:07:10.109Z,991.9
2017-11-12T02:08:10.946Z,991.9
2017-11-12T02:09:11.762Z,991.9
2017-11-12T02:10:12.497Z,991.9
2017-11-12T02:11:13.308Z,991.9
2017-11-12T02:12:14.023Z,991.8
2017-11-12T02:13:14.841Z,991.8
2017-11-12T02:14:15.650Z,991.9
2017-11-12T02:15:16.378Z,991.9
2017-11-12T02:16:17.094Z,991.8
2017-11-12T02:17:17.824Z,991.9
2017-11-12T02:18:18.905Z,991.9
2017-11-12T02:19:19.626Z,991.8
2017-11-12T02:20:20.376Z,991.9
2017-11-12T02:21:21.093Z,991.9
2017-11-12T02:22:21.930Z,991.8
2017-11-12T02:23:23.068Z,991.8
2017-11-12T02:24:23.804Z,991.8
2017-11-12T02:25:25.055Z,991.8
2017-11-12T02:26:26.043Z,991.8
2017-11-12T02:27:26.741Z,991.9
2017-11-12T02:28:27.546Z,991.8
2017-11-12T02:29:28.271Z,991.8
2017-11-12T02:30:29.028Z,991.8
2017-11-12T02:31:29.889Z,991.8
2017-11-12T02:32:30.934Z,991.8
2017-11-12T02:33:32.754Z,991.8
2017-11-12T02:34:33.663Z,991.8
2017-11-12T02:35:34.721Z,991.8
2017-11-12T02:36:35.431Z,991.7
2017-11-12T02:37:37.303Z,991.7
2017-11-12T02:38:38.198Z,991.7
2017-11-12T02:39:40.104Z,991.7
2017-11-12T02:40:42.092Z,991.7
2017-11-12T02:41:44.210Z,991.7
2017-11-12T02:42:46.067Z,991.7
2017-11-12T02:43:47.320Z,991.7
2017-11-12T02:44:48.126Z,991.7
2017-11-12T02:45:49.113Z,991.7
2017-11-12T02:46:49.892Z,991.7
2017-11-12T02:47:50.663Z,991.7
2017-11-12T02:48:51.472Z,991.6
2017-11-12T02:49:52.308Z,991.7
2017-11-12T02:50:53.050Z,991.7
2017-11-12T02:51:53.774Z,991.7
2017-11-12T02:52:54.501Z,991.7
2017-11-12T02:53:55.243Z,991.6
2017-11-12T02:54:55.952Z,991.6
2017-11-12T02:55:56.808Z,991.7
2017-11-12T02:56:57.557Z,991.7
2017-11-12T02:57:58.261Z,991.7
2017-11-12T02:58:59.053Z,991.7
2017-11-12T02:59:59.831Z,991.7
2017-11-12T03:01:00.848Z,991.6
2017-11-12T03:02:01.599Z,991.6
2017-11-12T03:03:02.290Z,991.7
2017-11-12T03:04:03.018Z,991.6
2017-11-12T03:05:03.830Z,991.6
2017-11-12T03:06:04.558Z,991.6
2017-11-12T03:08:19.633Z,991.6
2017-11-12T03:09:20.360Z,991.6
2017-11-12T03:10:21.082Z,991.6
2017-11-12T03:11:21.836Z,991.5
2017-11-12T03:12:22.648Z,991.6
2017-11-12T03:13:23.459Z,991.5
2017-11-12T03:14:24.179Z,991.6
2017-11-12T03:15:24.927Z,991.5
2017-11-12T03:16:25.662Z,991.5
2017-11-12T03:17:26.480Z,991.5
2017-11-12T03:18:27.300Z,991.5
2017-11-12T03:19:28.102Z,991.5
2017-11-12T03:20:28.821Z,991.4
2017-11-12T03:21:29.543Z,991.5
2017-11-12T03:22:30.349Z,991.5
2017-11-12T03:23:31.462Z,991.6
2017-11-12T03:24:32.181Z,991.5
2017-11-12T03:25:32.898Z,991.5
2017-11-12T03:26:33.631Z,991.5
2017-11-12T03:27:34.351Z,991.5
2017-11-12T03:28:35.070Z,991.5
2017-11-12T03:29:35.790Z,991.5
2017-11-12T03:30:36.585Z,991.4
2017-11-12T03:31:37.314Z,991.4
2017-11-12T03:32:38.432Z,991.4
2017-11-12T03:33:39.218Z,991.4
2017-11-12T03:34:39.933Z,991.4
2017-11-12T03:35:40.710Z,991.4
2017-11-12T03:36:41.422Z,991.4
2017-11-12T03:37:42.188Z,991.4
2017-11-12T03:38:42.892Z,991.3
2017-11-12T03:39:43.610Z,991.3
2017-11-12T03:40:44.342Z,991.3
2017-11-12T03:41:45.061Z,991.2
2017-11-12T03:42:45.794Z,991.2
2017-11-12T03:43:46.582Z,991.2
2017-11-12T03:44:47.280Z,991.2
2017-11-12T03:45:48.001Z,991.2
2017-11-12T03:46:48.721Z,991.1
2017-11-12T03:47:49.502Z,991.2
2017-11-12T03:48:50.209Z,991.2
2017-11-12T03:49:50.931Z,991.2
2017-11-12T03:50:51.658Z,991.2
2017-11-12T03:51:52.382Z,991.2
2017-11-12T03:52:53.105Z,991.1
2017-11-12T03:53:53.842Z,991.1
2017-11-12T03:54:54.610Z,991.1
2017-11-12T03:55:55.412Z,991.1
2017-11-12T03:56:56.123Z,991.1
2017-11-12T03:57:56.849Z,991.1
2017-11-12T03:58:57.570Z,991.1
2017-11-12T03:59:58.405Z,991.1
2017-11-12T04:00:59.176Z,991.1
2017-11-12T04:01:59.898Z,991.1
2017-11-12T04:03:00.628Z,991.0
2017-11-12T04:04:01.389Z,991.1
2017-11-12T04:05:02.170Z,991.1
2017-11-12T04:06:02.897Z,991.1
2017-11-12T04:07:03.676Z,991.1
2017-11-12T04:08:04.388Z,991.1
2017-11-12T04:09:05.118Z,991.0
2017-11-12T04:10:05.958Z,991.1
2017-11-12T04:11:06.671Z,991.1
2017-11-12T04:12:07.466Z,991.0
2017-11-12T04:13:08.184Z,991.0
2017-11-12T04:14:08.903Z,991.0
2017-11-12T04:15:09.733Z,991.0
2017-11-12T04:16:10.454Z,991.0
2017-11-12T04:17:11.238Z,990.9
2017-11-12T04:18:11.973Z,991.0
2017-11-12T04:19:12.750Z,990.9
2017-11-12T04:20:13.895Z,991.0
2017-11-12T04:21:14.685Z,991.0
2017-11-12T04:22:15.479Z,991.0
2017-11-12T04:23:16.208Z,991.0
2017-11-12T04:24:16.940Z,990.9
2017-11-12T04:25:18.076Z,990.9
2017-11-12T04:26:18.869Z,991.0
2017-11-12T04:27:19.592Z,990.9
2017-11-12T04:28:20.314Z,990.9
2017-11-12T04:29:21.051Z,990.9
2017-11-12T04:30:22.472Z,990.9
2017-11-12T04:31:23.259Z,990.8
2017-11-12T04:32:23.972Z,990.8
2017-11-12T04:33:24.688Z,990.9
2017-11-12T04:34:25.409Z,990.8
2017-11-12T04:35:26.139Z,990.8
2017-11-12T04:36:26.920Z,990.8
2017-11-12T04:37:27.677Z,990.8
2017-11-12T04:38:28.404Z,990.8
2017-11-12T04:39:29.205Z,990.7
2017-11-12T04:40:29.906Z,990.7
2017-11-12T04:41:30.627Z,990.7
2017-11-12T04:42:31.455Z,990.7
2017-11-12T04:43:32.239Z,990.8
2017-11-12T04:44:32.963Z,990.7
2017-11-12T04:45:33.682Z,990.7
2017-11-12T04:46:34.408Z,990.7
2017-11-12T04:47:35.129Z,990.7
2017-11-12T04:48:35.912Z,990.7
2017-11-12T04:49:36.680Z,990.7
2017-11-12T04:50:37.423Z,990.7
2017-11-12T04:51:38.149Z,990.7
2017-11-12T04:52:38.880Z,990.7
2017-11-12T04:53:39.586Z,990.7
2017-11-12T04:54:40.293Z,990.7
2017-11-12T04:55:41.009Z,990.7
2017-11-12T04:56:41.739Z,990.7
2017-11-12T04:57:42.544Z,990.7
2017-11-12T04:58:43.453Z,990.7
2017-11-12T04:59:44.177Z,990.7
2017-11-12T05:00:44.958Z,990.7
2017-11-12T05:01:45.732Z,990.7
2017-11-12T05:02:46.508Z,990.7
2017-11-12T05:03:47.291Z,990.7
2017-11-12T05:04:48.004Z,990.7
2017-11-12T05:05:48.734Z,990.7
2017-11-12T05:06:49.624Z,990.6
2017-11-12T05:07:50.338Z,990.6
2017-11-12T05:08:51.085Z,990.6
2017-11-12T05:09:51.789Z,990.6
2017-11-12T05:10:52.503Z,990.6
2017-11-12T05:11:53.277Z,990.6
2017-11-12T05:12:53.992Z,990.6
2017-11-12T05:13:54.705Z,990.5
2017-11-12T05:14:55.433Z,990.5
2017-11-12T05:15:56.250Z,990.5
2017-11-12T05:16:57.015Z,990.5
2017-11-12T05:17:57.841Z,990.4
2017-11-12T05:18:58.622Z,990.4
2017-11-12T05:19:59.393Z,990.4
2017-11-12T05:21:00.120Z,990.4
2017-11-12T05:22:00.943Z,990.4
2017-11-12T05:23:01.673Z,990.4
2017-11-12T05:24:02.398Z,990.4
2017-11-12T05:25:03.172Z,990.4
2017-11-12T05:26:03.883Z,990.4
2017-11-12T05:27:04.889Z,990.3
2017-11-12T05:28:05.604Z,990.3
2017-11-12T05:29:06.372Z,990.3
2017-11-12T05:30:07.102Z,990.3
2017-11-12T05:31:07.822Z,990.2
2017-11-12T05:32:08.550Z,990.2
2017-11-12T05:33:09.272Z,990.2
2017-11-12T05:34:10.059Z,990.2
2017-11-12T05:35:10.899Z,990.1
2017-11-12T05:36:11.646Z,990.1
2017-11-12T05:37:12.420Z,990.1
2017-11-12T05:38:13.183Z,990.0
2017-11-12T05:39:13.982Z,990.0
2017-11-12T05:40:14.704Z,990.0
2017-11-12T05:41:15.483Z,990.0
2017-11-12T05:42:16.199Z,989.9
2017-11-12T05:43:16.973Z,990.0
2017-11-12T05:44:17.738Z,989.9
2017-11-12T05:45:18.521Z,989.9
2017-11-12T05:46:19.310Z,989.9
2017-11-12T05:47:20.040Z,989.9
2017-11-12T05:48:21.212Z,989.9
2017-11-12T05:49:21.925Z,989.8
2017-11-12T05:50:22.699Z,989.8
2017-11-12T05:51:23.435Z,989.8
2017-11-12T05:52:24.193Z,989.8
2017-11-12T05:53:24.930Z,989.7
2017-11-12T05:54:25.649Z,989.7
2017-11-12T05:55:26.372Z,989.7
2017-11-12T05:56:27.103Z,989.7
2017-11-12T05:57:27.841Z,989.7
2017-11-12T05:58:28.665Z,989.7
2017-11-12T05:59:29.385Z,989.7
2017-11-12T06:00:30.173Z,989.6
2017-11-12T06:01:30.905Z,989.6
2017-11-12T06:02:31.633Z,989.6
2017-11-12T06:03:32.439Z,989.6
2017-11-12T06:04:33.172Z,989.6
2017-11-12T06:05:33.897Z,989.6
2017-11-12T06:06:34.708Z,989.6
2017-11-12T06:07:35.469Z,989.7
2017-11-12T06:08:36.229Z,989.6
2017-11-12T06:09:36.944Z,989.6
2017-11-12T06:10:37.673Z,989.6
2017-11-12T06:11:38.466Z,989.6
2017-11-12T06:12:39.256Z,989.5
2017-11-12T06:13:40.389Z,989.5
2017-11-12T06:14:41.102Z,989.5
2017-11-12T06:15:41.864Z,989.5
2017-11-12T06:16:42.667Z,989.5
2017-11-12T06:17:43.449Z,989.5
2017-11-12T06:18:44.229Z,989.5
2017-11-12T06:19:44.949Z,989.5
2017-11-12T06:20:45.681Z,989.5
2017-11-12T06:21:46.483Z,989.5
2017-11-12T06:22:47.239Z,989.5
2017-11-12T06:23:48.013Z,989.4
2017-11-12T06:24:48.738Z,989.4
2017-11-12T06:25:49.463Z,989.4
2017-11-12T06:26:50.198Z,989.3
2017-11-12T06:27:50.974Z,989.3
2017-11-12T06:28:51.801Z,989.3
2017-11-12T06:29:52.553Z,989.3
2017-11-12T06:30:53.331Z,989.3
2017-11-12T06:31:54.083Z,989.3
2017-11-12T06:32:54.820Z,989.3
2017-11-12T06:33:55.623Z,989.2
2017-11-12T06:34:56.341Z,989.2
2017-11-12T06:35:57.169Z,989.2
2017-11-12T06:36:57.942Z,989.2
2017-11-12T06:37:58.710Z,989.2
2017-11-12T06:38:59.493Z,989.1
2017-11-12T06:40:00.215Z,989.1
2017-11-12T06:41:00.943Z,989.1
2017-11-12T06:42:01.663Z,989.0
2017-11-12T06:43:02.394Z,989.0
2017-11-12T06:44:03.232Z,989.0
2017-11-12T06:45:03.964Z,989.0
2017-11-12T06:46:04.671Z,989.0
2017-11-12T06:47:05.400Z,989.0
2017-11-12T06:48:06.194Z,988.9
2017-11-12T06:49:06.993Z,988.8
2017-11-12T06:50:07.789Z,988.9
2017-11-12T06:51:08.556Z,988.8
2017-11-12T06:52:09.370Z,988.8
2017-11-12T06:53:10.095Z,988.8
2017-11-12T06:54:10.848Z,988.8
2017-11-12T06:55:11.649Z,988.8
2017-11-12T06:56:12.453Z,988.8
2017-11-12T06:57:13.228Z,988.8
2017-11-12T06:58:14.024Z,988.8
2017-11-12T06:59:14.817Z,988.7
2017-11-12T07:00:15.550Z,988.7
2017-11-12T07:01:16.288Z,988.7
2017-11-12T07:02:17.430Z,988.7
2017-11-12T07:03:18.157Z,988.7
2017-11-12T07:04:18.881Z,988.6
2017-11-12T07:05:19.676Z,988.6
2017-11-12T07:06:20.410Z,988.6
2017-11-12T07:07:21.198Z,988.6
2017-11-12T07:08:21.943Z,988.5
2017-11-12T07:09:22.667Z,988.5
2017-11-12T07:10:23.475Z,988.5
2017-11-12T07:11:24.289Z,988.5
2017-11-12T07:12:25.059Z,988.5
2017-11-12T07:13:25.790Z,988.5
2017-11-12T07:14:26.543Z,988.4
2017-11-12T07:15:27.353Z,988.4
2017-11-12T07:16:28.128Z,988.4
2017-11-12T07:17:29.161Z,988.4
2017-11-12T07:18:29.931Z,988.4
2017-11-12T07:19:30.652Z,988.4
2017-11-12T07:20:31.383Z,988.3
2017-11-12T07:21:32.193Z,988.3
2017-11-12T07:22:33.390Z,988.3
2017-11-12T07:23:34.137Z,988.3
2017-11-12T07:24:34.849Z,988.2
2017-11-12T07:25:35.570Z,988.2
2017-11-12T07:26:36.314Z,988.2
2017-11-12T07:27:37.042Z,988.2
2017-11-12T07:28:37.809Z,988.2
2017-11-12T07:29:38.561Z,988.1
2017-11-12T07:30:39.280Z,988.1
2017-11-12T07:31:40.021Z,988.1
2017-11-12T07:32:40.800Z,988.1
2017-11-12T07:33:41.942Z,988.1
2017-11-12T07:34:42.671Z,988.1
2017-11-12T07:35:43.479Z,988.1
2017-11-12T07:36:44.213Z,988.1
2017-11-12T07:37:44.941Z,988.1
2017-11-12T07:38:46.140Z,988.1
2017-11-12T07:39:46.928Z,988.1
2017-11-12T07:40:47.661Z,988.0
2017-11-12T07:41:48.394Z,988.0
2017-11-12T07:42:49.110Z,988.0
2017-11-12T07:43:49.949Z,988.0
2017-11-12T07:44:50.691Z,988.0
2017-11-12T07:45:51.495Z,988.0
2017-11-12T07:46:52.274Z,988.0
2017-11-12T07:47:52.997Z,988.0
2017-11-12T07:48:53.782Z,988.0
2017-11-12T07:49:54.588Z,988.0
2017-11-12T07:50:55.321Z,988.0
2017-11-12T07:51:56.046Z,988.0
2017-11-12T07:52:56.862Z,987.9
2017-11-12T07:53:57.695Z,988.0
2017-11-12T07:54:58.483Z,988.0
2017-11-12T07:55:59.215Z,987.9
2017-11-12T07:56:59.946Z,987.9
2017-11-12T07:58:00.683Z,987.9
2017-11-12T07:59:01.471Z,987.8
2017-11-12T08:00:02.240Z,987.8
2017-11-12T08:01:02.981Z,987.8
2017-11-12T08:02:03.708Z,987.8
2017-11-12T08:03:04.443Z,987.8
2017-11-12T08:04:05.234Z,987.8
2017-11-12T08:05:05.962Z,987.8
2017-11-12T08:06:06.727Z,987.8
2017-11-12T08:07:07.485Z,987.8
2017-11-12T08:08:08.223Z,987.7
2017-11-12T08:09:09.059Z,987.8
2017-11-12T08:10:09.805Z,987.8
2017-11-12T08:11:10.603Z,987.8
2017-11-12T08:12:11.372Z,987.7
2017-11-12T08:13:12.249Z,987.7
2017-11-12T08:14:13.394Z,987.6
2017-11-12T08:15:14.174Z,987.6
2017-11-12T08:16:14.973Z,987.6
2017-11-12T08:17:15.703Z,987.6
2017-11-12T08:18:16.512Z,987.6
2017-11-12T08:19:17.592Z,987.6
2017-11-12T08:20:18.401Z,987.6
2017-11-12T08:21:19.121Z,987.6
2017-11-12T08:22:19.923Z,987.6
2017-11-12T08:23:20.652Z,987.6
2017-11-12T08:24:21.425Z,987.6
2017-11-12T08:25:22.200Z,987.6
2017-11-12T08:26:22.967Z,987.6
2017-11-12T08:27:23.698Z,987.5
2017-11-12T08:28:24.482Z,987.5
2017-11-12T08:29:25.200Z,987.5
2017-11-12T08:30:26.301Z,987.5
2017-11-12T08:31:27.032Z,987.5
2017-11-12T08:32:27.844Z,987.6
2017-11-12T08:33:28.581Z,987.6
2017-11-12T08:34:29.298Z,987.5
2017-11-12T08:35:30.097Z,987.5
2017-11-12T08:36:30.883Z,987.5
2017-11-12T08:37:31.966Z,987.5
2017-11-12T08:38:32.780Z,987.5
2017-11-12T08:39:33.514Z,987.5
2017-11-12T08:40:34.293Z,987.5
2017-11-12T08:41:35.023Z,987.5
2017-11-12T08:42:36.156Z,987.5
2017-11-12T08:43:36.900Z,987.4
2017-11-12T08:44:37.677Z,987.4
2017-11-12T08:45:38.512Z,987.4
2017-11-12T08:46:39.239Z,987.4
2017-11-12T08:47:40.425Z,987.4
2017-11-12T08:48:41.145Z,987.4
2017-11-12T08:49:41.868Z,987.4
2017-11-12T08:50:42.616Z,987.4
2017-11-12T08:51:43.386Z,987.4
2017-11-12T08:52:44.129Z,987.3
2017-11-12T08:53:44.921Z,987.4
2017-11-12T08:54:45.752Z,987.4
2017-11-12T08:55:46.480Z,987.3
2017-11-12T08:56:47.282Z,987.3
2017-11-12T08:57:48.012Z,987.3
2017-11-12T08:58:48.728Z,987.3
2017-11-12T08:59:49.751Z,987.3
2017-11-12T09:00:50.549Z,987.4
2017-11-12T09:01:51.285Z,987.4
2017-11-12T09:02:52.013Z,987.4
2017-11-12T09:03:52.734Z,987.4
2017-11-12T09:04:53.533Z,987.4
2017-11-12T09:05:54.268Z,987.3
2017-11-12T09:06:55.038Z,987.3
2017-11-12T09:07:55.764Z,987.3
2017-11-12T09:08:56.488Z,987.3
2017-11-12T09:09:57.368Z,987.2
2017-11-12T09:10:58.091Z,987.2
2017-11-12T09:11:58.902Z,987.2
2017-11-12T09:12:59.581Z,987.2
2017-11-12T09:14:00.323Z,987.1
2017-11-12T09:15:01.221Z,987.1
2017-11-12T09:16:02.025Z,987.2
2017-11-12T09:17:02.814Z,987.1
2017-11-12T09:18:03.627Z,987.1
2017-11-12T09:19:04.422Z,987.1
2017-11-12T09:20:05.566Z,987.2
2017-11-12T09:21:06.372Z,987.1
2017-11-12T09:22:07.094Z,987.1
2017-11-12T09:23:07.836Z,987.1
2017-11-12T09:24:08.600Z,987.1
2017-11-12T09:25:09.440Z,987.1
2017-11-12T09:26:10.174Z,987.0
2017-11-12T09:27:10.981Z,987.0
2017-11-12T09:28:11.712Z,987.0
2017-11-12T09:29:12.434Z,987.0
2017-11-12T09:30:13.573Z,987.0
2017-11-12T09:31:14.303Z,986.9
2017-11-12T09:32:15.066Z,987.0
2017-11-12T09:33:15.834Z,986.9
2017-11-12T09:34:16.597Z,986.9
2017-11-12T09:35:17.442Z,986.9
2017-11-12T09:36:18.190Z,986.8
2017-11-12T09:37:18.920Z,986.8
2017-11-12T09:38:19.676Z,986.8
2017-11-12T09:39:20.491Z,986.8
2017-11-12T09:40:21.319Z,986.8
2017-11-12T09:41:22.118Z,986.8
2017-11-12T09:42:22.834Z,986.8
2017-11-12T09:43:23.571Z,986.7
2017-11-12T09:44:24.408Z,986.7
2017-11-12T09:45:25.248Z,986.7
2017-11-12T09:46:25.982Z,986.7
2017-11-12T09:47:27.368Z,986.6
2017-11-12T09:48:28.112Z,986.6
2017-11-12T09:49:28.960Z,986.6
2017-11-12T09:50:30.004Z,986.5
2017-11-12T09:51:30.762Z,986.5
2017-11-12T09:52:31.493Z,986.5
2017-11-12T09:53:32.232Z,986.4
2017-11-12T09:54:32.965Z,986.4
2017-11-12T09:55:34.752Z,986.4
2017-11-12T09:56:35.427Z,986.4
2017-11-12T09:57:36.225Z,986.4
2017-11-12T09:58:37.026Z,986.3
2017-11-12T09:59:37.753Z,986.3
2017-11-12T10:00:38.471Z,986.3
2017-11-12T10:01:39.247Z,986.2
2017-11-12T10:02:39.982Z,986.2
2017-11-12T10:03:40.778Z,986.2
2017-11-12T10:04:41.521Z,986.2
2017-11-12T10:05:42.300Z,986.2
2017-11-12T10:06:43.123Z,986.2
2017-11-12T10:07:43.899Z,986.1
2017-11-12T10:08:44.883Z,986.1
2017-11-12T10:09:45.564Z,986.1
2017-11-12T10:10:46.297Z,986.0
2017-11-12T10:11:47.135Z,986.0
2017-11-12T10:12:47.859Z,986.0
2017-11-12T10:13:48.794Z,986.0
2017-11-12T10:14:49.535Z,985.9
2017-11-12T10:15:50.262Z,985.9
2017-11-12T10:16:50.982Z,985.9
2017-11-12T10:17:51.892Z,985.9
2017-11-12T10:18:52.561Z,985.9
2017-11-12T10:19:53.288Z,985.8
2017-11-12T10:20:54.025Z,985.9
2017-11-12T10:21:54.924Z,985.8
2017-11-12T10:22:55.667Z,985.7
2017-11-12T10:23:56.399Z,985.7
2017-11-12T10:24:58.112Z,985.6
2017-11-12T10:25:59.140Z,985.7
2017-11-12T10:26:59.973Z,985.6
2017-11-12T10:28:00.719Z,985.6
2017-11-12T10:29:01.481Z,985.6
2017-11-12T10:30:02.216Z,985.6
2017-11-12T10:31:02.960Z,985.6
2017-11-12T10:32:04.120Z,985.5
2017-11-12T10:33:04.779Z,985.5
2017-11-12T10:34:06.008Z,985.5
2017-11-12T10:35:06.990Z,985.5
2017-11-12T10:36:08.057Z,985.4
2017-11-12T10:37:08.938Z,985.4
2017-11-12T10:38:09.666Z,985.4
2017-11-12T10:39:10.459Z,985.4
2017-11-12T10:40:11.267Z,985.3
2017-11-12T10:41:12.226Z,985.3
2017-11-12T10:42:13.122Z,985.2
2017-11-12T10:43:13.957Z,985.2
2017-11-12T10:44:14.791Z,985.1
2017-11-12T10:45:16.788Z,985.1
2017-11-12T10:46:17.574Z,985.1
2017-11-12T10:47:18.415Z,985.1
2017-11-12T10:48:19.153Z,985.0
2017-11-12T10:49:19.939Z,985.0
2017-11-12T10:50:21.349Z,984.9
2017-11-12T10:51:22.017Z,985.0
2017-11-12T10:52:23.239Z,985.0
2017-11-12T10:53:24.284Z,985.0
2017-11-12T10:54:25.065Z,985.0
2017-11-12T10:55:25.875Z,985.0
2017-11-12T10:56:26.673Z,985.0
2017-11-12T10:57:27.457Z,985.0
2017-11-12T10:58:28.251Z,985.0
2017-11-12T10:59:29.034Z,985.1
2017-11-12T11:00:29.832Z,985.1
2017-11-12T11:01:30.556Z,985.2
2017-11-12T11:02:31.282Z,985.2
2017-11-12T11:03:32.063Z,985.1
2017-11-12T11:04:32.799Z,985.1
2017-11-12T11:05:33.528Z,985.1
2017-11-12T11:06:34.259Z,985.1
2017-11-12T11:07:35.047Z,985.1
2017-11-12T11:08:35.776Z,985.0
2017-11-12T11:09:36.564Z,985.0
2017-11-12T11:10:37.292Z,985.0
2017-11-12T11:11:38.031Z,984.9
2017-11-12T11:12:38.802Z,984.9
2017-11-12T11:13:39.599Z,984.9
2017-11-12T11:14:40.325Z,984.8
2017-11-12T11:15:41.099Z,984.8
2017-11-12T11:16:41.829Z,984.8
2017-11-12T11:17:42.676Z,984.8
2017-11-12T11:18:43.398Z,984.7
2017-11-12T11:19:44.133Z,984.7
2017-11-12T11:20:44.918Z,984.6
2017-11-12T11:21:45.675Z,984.6
2017-11-12T11:22:46.764Z,984.6
2017-11-12T11:23:47.489Z,984.6
2017-11-12T11:24:48.212Z,984.6
2017-11-12T11:25:48.954Z,984.6
2017-11-12T11:26:49.663Z,984.6
2017-11-12T11:27:50.874Z,984.6
2017-11-12T11:28:51.591Z,984.6
2017-11-12T11:29:52.382Z,984.6
2017-11-12T11:30:53.112Z,984.5
2017-11-12T11:31:53.831Z,984.5
2017-11-12T11:32:54.550Z,984.5
2017-11-12T11:33:55.347Z,984.5
2017-11-12T11:34:56.095Z,984.4
2017-11-12T11:35:56.789Z,984.5
2017-11-12T11:36:57.520Z,984.4
2017-11-12T11:37:58.367Z,984.4
2017-11-12T11:38:59.144Z,984.4
2017-11-12T11:39:59.862Z,984.3
2017-11-12T11:41:00.613Z,984.4
2017-11-12T11:42:01.373Z,984.3
2017-11-12T11:43:02.529Z,984.4
2017-11-12T11:44:03.264Z,984.4
2017-11-12T11:45:04.070Z,984.4
2017-11-12T11:46:04.842Z,984.5
2017-11-12T11:47:05.819Z,984.5
2017-11-12T11:48:06.891Z,984.5
2017-11-12T11:49:07.647Z,984.5
2017-11-12T11:50:08.448Z,984.6
2017-11-12T11:51:09.139Z,984.7
2017-11-12T11:52:09.853Z,984.7
2017-11-12T11:53:10.591Z,984.7
2017-11-12T11:54:11.422Z,984.7
2017-11-12T11:55:12.256Z,984.7
2017-11-12T11:56:12.969Z,984.7
2017-11-12T11:57:13.697Z,984.7
2017-11-12T11:58:14.443Z,984.6
2017-11-12T11:59:15.289Z,984.6
2017-11-12T12:00:16.018Z,984.5
2017-11-12T12:01:16.738Z,984.5
2017-11-12T12:02:17.538Z,984.4
2017-11-12T12:03:18.271Z,984.4
2017-11-12T12:04:19.049Z,984.4
2017-11-12T12:05:19.782Z,984.3
2017-11-12T12:06:20.522Z,984.3
2017-11-12T12:07:21.401Z,984.4
2017-11-12T12:08:22.136Z,984.4
2017-11-12T12:09:22.858Z,984.4
2017-11-12T12:10:23.581Z,984.4
2017-11-12T12:11:24.409Z,984.4
2017-11-12T12:12:25.553Z,984.4
2017-11-12T12:13:26.408Z,984.5
2017-11-12T12:14:27.213Z,984.5
2017-11-12T12:15:27.932Z,984.5
2017-11-12T12:16:28.748Z,984.5
2017-11-12T12:17:29.576Z,984.5
2017-11-12T12:18:30.303Z,984.4
2017-11-12T12:19:31.029Z,984.4
2017-11-12T12:20:31.777Z,984.4
2017-11-12T12:21:32.503Z,984.4
2017-11-12T12:22:33.583Z,984.4
2017-11-12T12:23:34.421Z,984.4
2017-11-12T12:24:35.197Z,984.4
2017-11-12T12:25:37.104Z,984.3
2017-11-12T12:26:38.206Z,984.3
2017-11-12T12:27:39.354Z,984.3
2017-11-12T12:28:40.061Z,984.2
2017-11-12T12:29:40.794Z,984.2
2017-11-12T12:30:41.536Z,984.2
2017-11-12T12:31:42.399Z,984.2
2017-11-12T12:32:43.820Z,984.2
2017-11-12T12:33:44.568Z,984.1
2017-11-12T12:34:45.428Z,984.1
2017-11-12T12:35:46.152Z,984.2
2017-11-12T12:36:46.944Z,984.2
2017-11-12T12:37:47.749Z,984.2
2017-11-12T12:38:48.617Z,984.2
2017-11-12T12:39:49.381Z,984.2
2017-11-12T12:40:50.107Z,984.2
2017-11-12T12:41:50.879Z,984.2
2017-11-12T12:42:51.597Z,984.2
2017-11-12T12:43:52.340Z,984.2
2017-11-12T12:44:53.141Z,984.2
2017-11-12T12:45:53.870Z,984.1
2017-11-12T12:46:54.661Z,984.2
2017-11-12T12:47:55.516Z,984.2
2017-11-12T12:48:56.594Z,984.1
2017-11-12T12:49:57.264Z,984.2
2017-11-12T12:50:57.992Z,984.1
2017-11-12T12:51:58.721Z,984.1
2017-11-12T12:52:59.455Z,984.1
2017-11-12T12:54:00.265Z,984.1
2017-11-12T12:55:00.973Z,984.2
2017-11-12T12:56:01.779Z,984.2
2017-11-12T12:57:02.692Z,984.1
2017-11-12T12:58:03.435Z,984.2
2017-11-12T12:59:04.243Z,984.2
2017-11-12T13:00:05.048Z,984.2
2017-11-12T13:01:05.768Z,984.2
2017-11-12T13:02:06.855Z,984.2
2017-11-12T13:03:07.658Z,984.2
2017-11-12T13:04:08.414Z,984.2